Time;durP1;ratioP1;P1;durP2;ratioP2;P2;SDS_P1;SDS_P2;PMS_P1;PMS_P2;Temp;Humidity;BMP_temperature;BMP_pressure;BME280_temperature;BME280_humidity;BME280_pressure;Samples;Min_cycle;Max_cycle;Signal;HPM_P1;HPM_P2
2023/02/28 00:01:50;;;;;;;7.83;4.43;;;;;;;-0.72;70.46;99894.72;5074814;28;38867;-81
2023/02/28 00:04:18;;;;;;;5.10;4.00;;;;;;;-1.11;70.07;99834.06;5092301;28;42688;-79
2023/02/28 00:06:45;;;;;;;5.10;4.27;;;;;;;-0.72;70.08;99905.13;5092111;28;43790;-80
2023/02/28 00:09:13;;;;;;;5.20;4.17;;;;;;;-0.75;70.21;99905.13;5075360;28;40974;-82
2023/02/28 00:11:43;;;;;;;4.10;3.70;;;;;;;-0.76;70.22;99895.59;5092414;28;39914;-79
2023/02/28 00:14:10;;;;;;;5.60;4.10;;;;;;;-0.78;70.47;99905.13;5093068;28;44312;-80
2023/02/28 00:16:38;;;;;;;6.00;4.00;;;;;;;-1.20;70.21;99843.59;5075047;28;42784;-80
2023/02/28 00:19:06;;;;;;;6.03;4.10;;;;;;;-0.83;70.40;99896.44;5091748;28;42005;-80
2023/02/28 00:21:33;;;;;;;4.90;4.40;;;;;;;-0.87;70.54;99900.81;5091974;28;38659;-78
2023/02/28 00:24:01;;;;;;;4.93;4.20;;;;;;;-0.91;71.09;99900.81;5074809;28;40744;-80
2023/02/28 00:26:29;;;;;;;6.97;4.37;;;;;;;-1.20;71.04;99849.66;5074286;28;41679;-80
2023/02/28 00:28:58;;;;;;;5.83;4.43;;;;;;;-0.93;70.36;99902.53;5091719;28;42313;-80
2023/02/28 00:31:26;;;;;;;4.53;3.53;;;;;;;-0.95;70.37;99906.84;5074890;28;38793;-78
2023/02/28 00:33:54;;;;;;;4.60;4.03;;;;;;;-1.02;71.03;99902.53;5092557;28;42621;-79
2023/02/28 00:36:22;;;;;;;4.50;3.80;;;;;;;-1.03;71.32;99893.00;5091666;28;41725;-79
2023/02/28 00:38:50;;;;;;;5.53;4.63;;;;;;;-1.04;71.58;99899.94;5074328;28;41350;-81
2023/02/28 00:41:18;;;;;;;5.80;4.20;;;;;;;-1.08;71.47;99888.66;5092593;28;40167;-81
2023/02/28 00:43:46;;;;;;;5.07;4.00;;;;;;;-1.08;71.54;99904.25;5074569;28;41024;-79
2023/02/28 00:46:15;;;;;;;6.13;4.37;;;;;;;-1.08;72.44;99892.97;5091520;28;43466;-81
2023/02/28 00:48:43;;;;;;;5.17;4.40;;;;;;;-1.10;72.42;99898.16;5074277;28;42233;-81
2023/02/28 00:51:11;;;;;;;5.40;4.30;;;;;;;-1.10;72.53;99892.97;5075067;28;38744;-80
2023/02/28 00:53:38;;;;;;;5.47;4.30;;;;;;;-1.13;73.19;99892.13;5085323;28;42737;-79
2023/02/28 00:56:06;;;;;;;4.70;4.10;;;;;;;-1.22;72.85;99879.97;5072838;28;42495;-79
2023/02/28 00:58:34;;;;;;;6.47;4.00;;;;;;;-1.09;72.95;99888.63;5090905;28;42345;-77
2023/02/28 01:01:02;;;;;;;4.73;4.00;;;;;;;-1.14;73.42;99890.38;5091071;28;40153;-79
2023/02/28 01:03:31;;;;;;;4.90;4.13;;;;;;;-1.15;73.50;99883.47;5073782;28;40867;-80
2023/02/28 01:05:59;;;;;;;4.43;4.03;;;;;;;-1.18;73.96;99893.84;5091895;28;43782;-82
2023/02/28 01:08:27;;;;;;;4.70;3.93;;;;;;;-1.17;73.59;99888.66;5074179;28;40963;-79
2023/02/28 01:10:55;;;;;;;6.57;4.57;;;;;;;-1.18;73.88;99896.44;5091206;28;39804;-79
2023/02/28 01:13:25;;;;;;;6.17;4.70;;;;;;;-1.20;73.46;99891.25;5091145;28;41677;-78
2023/02/28 01:15:55;;;;;;;6.00;4.53;;;;;;;-1.23;74.02;99893.81;5090840;28;43722;-80
2023/02/28 01:18:24;;;;;;;4.60;4.20;;;;;;;-1.43;74.93;99864.34;5074260;28;41980;-79
2023/02/28 01:20:53;;;;;;;5.70;4.70;;;;;;;-1.27;73.94;99889.50;5091216;28;40997;-80
2023/02/28 01:23:23;;;;;;;6.33;4.23;;;;;;;-1.30;74.36;99892.09;5090839;28;41897;-81
2023/02/28 01:25:51;;;;;;;5.30;4.80;;;;;;;-1.32;74.71;99886.03;5090860;28;43584;-79
2023/02/28 01:28:18;;;;;;;4.67;4.23;;;;;;;-1.44;74.57;99865.22;5090802;28;41240;-80
2023/02/28 01:30:49;;;;;;;6.60;4.57;;;;;;;-1.72;74.49;99819.25;5091095;28;40431;-82
2023/02/28 01:33:16;;;;;;;5.10;4.53;;;;;;;-1.41;74.35;99873.03;5073330;28;41939;-79
2023/02/28 01:35:44;;;;;;;5.20;4.67;;;;;;;-1.35;74.56;99869.56;5090874;28;43529;-82
2023/02/28 01:38:13;;;;;;;5.10;4.20;;;;;;;-1.69;74.33;99830.53;5074417;28;41268;-80
2023/02/28 01:40:41;;;;;;;7.67;4.90;;;;;;;-1.55;74.69;99848.75;5094384;28;39968;-79
2023/02/28 01:43:21;;;;;;;5.43;4.50;;;;;;;-1.37;74.23;99877.38;5094367;28;42680;-82
2023/02/28 01:45:49;;;;;;;6.90;4.87;;;;;;;-1.39;74.17;99878.22;5091272;28;42661;-78
2023/02/28 01:48:17;;;;;;;4.93;4.17;;;;;;;-1.38;74.14;99880.84;5094157;28;43118;-79
2023/02/28 01:50:48;;;;;;;6.07;4.47;;;;;;;-1.39;74.33;99881.69;5095621;28;40947;-81
2023/02/28 01:53:20;;;;;;;5.23;4.70;;;;;;;-1.41;74.62;99870.44;5094124;28;42507;-80
2023/02/28 01:55:51;;;;;;;5.67;4.57;;;;;;;-1.39;74.02;99868.69;5092053;28;43509;-78
2023/02/28 01:58:21;;;;;;;5.37;4.73;;;;;;;-1.50;74.68;99866.09;5077129;28;42775;-78
2023/02/28 02:00:49;;;;;;;5.57;5.00;;;;;;;-1.39;74.13;99868.69;5094162;28;40737;-78
2023/02/28 02:03:21;;;;;;;5.23;4.73;;;;;;;-1.37;74.13;99869.56;5093772;28;43359;-79
2023/02/28 02:05:49;;;;;;;5.93;5.33;;;;;;;-1.67;74.32;99834.00;5090765;28;43737;-81
2023/02/28 02:08:22;;;;;;;4.60;4.20;;;;;;;-1.34;73.86;99872.16;5093841;28;42356;-79
2023/02/28 02:10:53;;;;;;;5.03;4.53;;;;;;;-1.34;73.90;99861.75;5091030;28;40253;-79
2023/02/28 02:13:33;;;;;;;7.53;4.60;;;;;;;-1.33;74.20;99865.22;5077063;28;42126;-81
2023/02/28 02:16:08;;;;;;;7.37;4.87;;;;;;;-1.39;74.18;99860.91;5090686;28;43647;-81
2023/02/28 02:18:44;;;;;;;5.67;4.80;;;;;;;-1.37;73.87;99855.72;5093233;28;43060;-79
2023/02/28 02:21:36;;;;;;;5.07;4.30;;;;;;;-1.41;74.21;99865.22;5091940;28;40857;-81
2023/02/28 02:24:40;;;;;;;7.17;4.80;;;;;;;-1.40;73.94;99861.78;5093167;28;42050;-81
2023/02/28 02:27:34;;;;;;;6.13;4.83;;;;;;;-1.44;73.84;99854.81;5076319;28;42222;-82
2023/02/28 02:30:32;;;;;;;5.50;4.47;;;;;;;-1.44;73.43;99854.81;5090883;28;42221;-78
2023/02/28 02:33:29;;;;;;;5.33;4.47;;;;;;;-1.48;73.83;99858.28;5091942;28;39842;-79
2023/02/28 02:36:07;;;;;;;6.30;4.77;;;;;;;-1.51;73.63;99853.97;5076914;28;40888;-78
2023/02/28 02:38:43;;;;;;;5.50;4.80;;;;;;;-1.55;73.53;99848.75;5092988;28;42087;-80
2023/02/28 02:41:17;;;;;;;5.93;4.93;;;;;;;-1.52;73.35;99861.75;5093609;28;42134;-81
2023/02/28 02:43:49;;;;;;;6.13;4.67;;;;;;;-1.54;73.52;99858.28;5093210;28;40941;-79
2023/02/28 02:46:21;;;;;;;5.63;4.50;;;;;;;-1.56;73.29;99867.78;5090655;28;42529;-80
2023/02/28 02:48:50;;;;;;;6.30;5.13;;;;;;;-1.59;73.50;99859.97;5076191;28;41579;-80
2023/02/28 02:51:23;;;;;;;6.53;4.90;;;;;;;-1.60;73.52;99858.25;5093416;28;41980;-81
2023/02/28 02:53:56;;;;;;;6.73;4.80;;;;;;;-1.62;73.24;99854.81;5076340;28;39277;-77
2023/02/28 02:56:29;;;;;;;5.60;4.73;;;;;;;-1.64;73.40;99861.72;5091959;28;41913;-80
2023/02/28 02:59:03;;;;;;;6.77;4.50;;;;;;;-1.78;73.51;99840.03;5076026;28;42569;-80
2023/02/28 03:01:33;;;;;;;7.17;5.27;;;;;;;-1.69;73.94;99863.44;5076068;28;41586;-82
2023/02/28 03:04:05;;;;;;;6.17;5.10;;;;;;;-1.83;74.13;99838.28;5075942;28;39276;-82
2023/02/28 03:06:34;;;;;;;6.53;4.63;;;;;;;-1.71;73.88;99866.00;5076582;28;42062;-82
2023/02/28 03:09:04;;;;;;;6.47;4.67;;;;;;;-1.77;74.04;99849.56;5076037;28;42747;-78
2023/02/28 03:11:34;;;;;;;7.43;5.90;;;;;;;-1.77;74.30;99854.75;5075503;28;42370;-81
2023/02/28 03:14:27;;;;;;;6.33;4.93;;;;;;;-1.78;74.55;99853.03;5092879;28;40907;-81
2023/02/28 03:17:09;;;;;;;6.87;4.70;;;;;;;-1.78;74.68;99858.22;5092343;28;42610;-78
2023/02/28 03:19:52;;;;;;;5.93;5.33;;;;;;;-1.79;74.25;99857.34;5075827;28;42831;-81
2023/02/28 03:23:01;;;;;;;6.70;4.63;;;;;;;-1.81;74.44;99857.34;5090494;28;43149;-80
2023/02/28 03:25:37;;;;;;;4.67;4.10;;;;;;;-1.82;74.27;99865.13;5031965;28;40050;-80
2023/02/28 03:28:13;;;;;;;5.33;4.53;;;;;;;-1.85;74.64;99868.56;5050210;28;41255;-79
2023/02/28 03:30:53;;;;;;;5.60;4.53;;;;;;;-1.84;74.61;99864.25;5051558;28;41951;-80
2023/02/28 03:33:25;;;;;;;6.03;4.10;;;;;;;-1.87;74.76;99870.31;5075569;28;40920;-79
2023/02/28 03:35:56;;;;;;;6.40;4.77;;;;;;;-1.89;74.61;99866.84;5090746;28;39975;-78
2023/02/28 03:38:30;;;;;;;8.50;5.23;;;;;;;-1.87;74.89;99861.66;5091601;28;41858;-79
2023/02/28 03:41:04;;;;;;;7.10;5.00;;;;;;;-1.89;74.64;99864.25;5075455;28;44137;-80
2023/02/28 03:43:40;;;;;;;6.00;5.10;;;;;;;-1.92;74.25;99856.44;5075340;28;41559;-78
2023/02/28 03:46:13;;;;;;;6.93;5.17;;;;;;;-2.00;74.68;99839.97;5075602;28;38989;-78
2023/02/28 03:48:46;;;;;;;7.03;5.23;;;;;;;-1.98;74.79;99860.75;5091964;28;41408;-80
2023/02/28 03:51:19;;;;;;;5.87;4.90;;;;;;;-1.91;75.20;99863.38;5090601;28;42674;-81
2023/02/28 03:53:53;;;;;;;6.17;5.00;;;;;;;-1.89;74.73;99860.78;5091924;28;42930;-78
2023/02/28 03:56:25;;;;;;;7.33;5.20;;;;;;;-1.95;75.50;99861.59;5074751;28;40548;-82
2023/02/28 03:58:59;;;;;;;6.03;5.00;;;;;;;-1.91;75.49;99863.38;5091906;28;41858;-78
2023/02/28 04:01:31;;;;;;;5.93;5.03;;;;;;;-1.90;75.08;99864.22;5089560;28;42698;-80
2023/02/28 04:03:59;;;;;;;6.80;5.87;;;;;;;-2.12;75.50;99829.56;5091830;28;41546;-80
2023/02/28 04:06:27;;;;;;;6.83;5.20;;;;;;;-1.91;75.53;99863.38;5093182;28;40612;-79
2023/02/28 04:08:56;;;;;;;6.60;5.30;;;;;;;-1.96;76.46;99862.47;5091955;28;41696;-80
2023/02/28 04:11:31;;;;;;;5.53;4.60;;;;;;;-1.91;76.14;99871.16;5075096;28;44367;-80
2023/02/28 04:13:59;;;;;;;8.37;5.67;;;;;;;-1.90;76.17;99870.28;5091958;28;41119;-80
2023/02/28 04:16:27;;;;;;;7.90;5.23;;;;;;;-1.87;76.08;99872.91;5075122;28;38928;-79
2023/02/28 04:19:01;;;;;;;6.63;5.27;;;;;;;-1.89;75.81;99865.97;5074830;28;41206;-79
2023/02/28 04:21:29;;;;;;;5.80;4.93;;;;;;;-1.86;75.68;99869.47;5088972;28;42623;-81
2023/02/28 04:24:00;;;;;;;6.37;5.60;;;;;;;-1.88;75.56;99868.56;5074451;28;41147;-78
2023/02/28 04:26:30;;;;;;;6.53;5.43;;;;;;;-2.03;75.46;99842.56;5093110;28;39738;-79
2023/02/28 04:28:58;;;;;;;7.80;5.33;;;;;;;-2.05;75.69;99840.81;5092591;28;42367;-81
2023/02/28 04:31:26;;;;;;;6.70;5.23;;;;;;;-1.86;75.47;99866.00;5091530;28;42929;-79
2023/02/28 04:33:54;;;;;;;6.07;4.67;;;;;;;-1.87;75.81;99867.72;5074405;28;41073;-79
2023/02/28 04:36:23;;;;;;;5.73;4.90;;;;;;;-1.89;76.14;99866.84;5092867;28;40125;-78
2023/02/28 04:38:51;;;;;;;9.10;5.67;;;;;;;-1.89;75.91;99866.84;5074666;28;40328;-78
2023/02/28 04:41:22;;;;;;;7.27;5.70;;;;;;;-1.88;76.02;99868.56;5091745;28;41783;-80
2023/02/28 04:43:50;;;;;;;7.47;4.87;;;;;;;-1.99;75.88;99849.50;5091595;28;41201;-80
2023/02/28 04:46:18;;;;;;;6.47;5.40;;;;;;;-1.86;75.69;99872.06;5074730;28;38761;-79
2023/02/28 04:48:46;;;;;;;5.90;5.30;;;;;;;-1.85;75.38;99873.75;5091924;28;41835;-79
2023/02/28 04:51:15;;;;;;;6.90;4.93;;;;;;;-1.88;75.43;99865.97;5092408;28;42924;-77
2023/02/28 04:53:44;;;;;;;6.27;4.77;;;;;;;-1.89;75.34;99874.63;5092462;28;43211;-78
2023/02/28 04:56:14;;;;;;;5.87;5.17;;;;;;;-1.90;75.10;99870.28;5091468;28;39963;-80
2023/02/28 04:58:43;;;;;;;7.27;5.20;;;;;;;-1.93;74.94;99877.19;5074206;28;40659;-79
2023/02/28 05:01:20;;;;;;;6.27;5.47;;;;;;;-1.96;75.32;99872.84;5091528;28;42034;-80
2023/02/28 05:03:49;;;;;;;7.27;5.13;;;;;;;-1.98;75.23;99866.78;5091461;28;42349;-79
2023/02/28 05:06:17;;;;;;;5.40;4.70;;;;;;;-2.01;75.62;99879.78;5091347;28;39992;-79
2023/02/28 05:08:45;;;;;;;5.47;4.97;;;;;;;-2.03;75.81;99865.91;5074307;28;41621;-81
2023/02/28 05:11:17;;;;;;;6.13;5.00;;;;;;;-2.00;75.78;99867.66;5074519;28;41761;-80
2023/02/28 05:13:47;;;;;;;6.27;4.30;;;;;;;-2.02;75.32;99875.44;5077611;28;41266;-78
2023/02/28 05:16:15;;;;;;;5.47;4.77;;;;;;;-2.14;75.50;99857.22;5095053;28;40742;-78
2023/02/28 05:18:43;;;;;;;5.03;4.23;;;;;;;-2.03;75.74;99875.44;5077790;28;41745;-79
2023/02/28 05:21:25;;;;;;;6.97;5.40;;;;;;;-2.05;75.96;99880.59;5077658;28;41678;-80
2023/02/28 05:23:53;;;;;;;5.33;4.53;;;;;;;-2.01;75.49;99879.78;5094603;28;43011;-81
2023/02/28 05:26:21;;;;;;;5.60;4.70;;;;;;;-2.02;75.49;99879.75;5077309;28;40336;-80
2023/02/28 05:28:51;;;;;;;6.17;5.10;;;;;;;-2.10;75.55;99865.91;5077815;28;40547;-80
2023/02/28 05:31:18;;;;;;;5.70;4.73;;;;;;;-2.00;75.47;99886.69;5077759;28;41717;-78
2023/02/28 05:33:47;;;;;;;4.93;4.43;;;;;;;-2.12;75.59;99865.00;5094510;28;43149;-79
2023/02/28 05:36:15;;;;;;;7.63;4.80;;;;;;;-2.04;75.64;99889.25;5094763;28;38885;-80
2023/02/28 05:38:44;;;;;;;5.83;4.37;;;;;;;-2.03;75.73;99894.47;5094196;28;40565;-81
2023/02/28 05:41:12;;;;;;;6.93;4.50;;;;;;;-2.06;75.91;99886.66;5094617;28;43544;-78
2023/02/28 05:43:40;;;;;;;6.17;4.77;;;;;;;-2.01;75.52;99891.88;5077378;28;41244;-79
2023/02/28 05:46:11;;;;;;;5.20;4.30;;;;;;;-1.97;75.33;99899.66;5077810;28;38969;-80
2023/02/28 05:48:41;;;;;;;6.37;4.73;;;;;;;-1.99;75.27;99904.00;5095308;28;41122;-81
2023/02/28 05:51:10;;;;;;;4.57;3.97;;;;;;;-1.95;75.03;99908.34;5077331;28;44377;-81
2023/02/28 05:53:38;;;;;;;6.40;4.47;;;;;;;-2.35;74.73;99831.19;5076976;28;41599;-78
2023/02/28 05:56:06;;;;;;;5.20;4.03;;;;;;;-1.94;74.78;99904.88;5093109;28;40905;-81
2023/02/28 05:58:34;;;;;;;5.23;4.50;;;;;;;-1.93;74.71;99903.16;5093836;28;42445;-82
2023/02/28 06:01:23;;;;;;;5.07;3.97;;;;;;;-1.91;74.64;99902.31;5077133;28;42983;-78
2023/02/28 06:03:51;;;;;;;5.37;4.13;;;;;;;-1.90;74.47;99909.22;5093808;28;41290;-79
2023/02/28 06:06:19;;;;;;;5.33;4.40;;;;;;;-1.91;74.07;99915.28;5077183;28;39367;-79
2023/02/28 06:08:47;;;;;;;5.47;4.13;;;;;;;-1.86;73.89;99912.72;5093972;28;40700;-80
2023/02/28 06:11:15;;;;;;;5.27;4.23;;;;;;;-1.87;73.99;99924.84;5094004;28;43851;-81
2023/02/28 06:13:42;;;;;;;5.80;4.20;;;;;;;-1.85;73.84;99925.69;5093642;28;43140;-77
2023/02/28 06:16:12;;;;;;;5.37;4.03;;;;;;;-1.84;73.78;99924.81;5093845;28;40061;-78
2023/02/28 06:18:41;;;;;;;5.87;4.70;;;;;;;-1.87;73.67;99927.44;5093813;28;42676;-81
2023/02/28 06:21:09;;;;;;;5.63;4.23;;;;;;;-1.87;73.67;99922.22;5094708;28;42687;-80
2023/02/28 06:23:37;;;;;;;6.73;4.70;;;;;;;-1.82;73.46;99925.69;5094402;28;42273;-78
2023/02/28 06:26:05;;;;;;;6.87;4.20;;;;;;;-1.78;73.27;99936.09;5093938;28;39781;-79
2023/02/28 06:28:33;;;;;;;5.43;4.10;;;;;;;-1.71;73.26;99935.25;5076741;28;40976;-81
2023/02/28 06:31:07;;;;;;;4.73;4.20;;;;;;;-1.73;72.91;99934.41;5076720;28;42730;-78
2023/02/28 06:33:36;;;;;;;5.70;4.60;;;;;;;-1.75;72.41;99925.75;5101461;28;42962;-82
2023/02/28 06:36:07;;;;;;;5.60;4.07;;;;;;;-1.64;72.23;99944.81;5114151;28;40789;-78
2023/02/28 06:38:35;;;;;;;6.40;4.60;;;;;;;-1.64;72.04;99943.09;5113552;28;41007;-80
2023/02/28 06:41:04;;;;;;;4.43;4.00;;;;;;;-1.57;71.99;99952.63;5095781;28;41466;-80
2023/02/28 06:43:34;;;;;;;6.03;4.40;;;;;;;-1.52;71.57;99950.94;5114514;28;42501;-78
2023/02/28 06:46:03;;;;;;;7.40;4.60;;;;;;;-1.48;71.59;99954.38;5107821;28;42520;-80
2023/02/28 06:48:31;;;;;;;4.87;4.10;;;;;;;-1.44;71.26;99961.34;5076383;28;41896;-78
2023/02/28 06:51:06;;;;;;;7.03;3.83;;;;;;;-1.49;71.02;99950.09;5093896;28;43525;-82
2023/02/28 06:53:34;;;;;;;5.27;4.77;;;;;;;-1.39;70.86;99946.66;5093931;28;43157;-82
2023/02/28 06:56:06;;;;;;;8.30;4.40;;;;;;;-1.17;70.28;99970.94;5093008;28;39163;-78
2023/02/28 06:58:35;;;;;;;5.07;4.37;;;;;;;-1.10;70.01;99970.94;5093035;28;41799;-80
2023/02/28 07:01:03;;;;;;;4.83;4.33;;;;;;;-0.96;69.73;99977.91;5076124;28;42819;-79
2023/02/28 07:03:31;;;;;;;6.30;4.37;;;;;;;-0.83;69.14;99983.13;4995387;28;41097;-82
2023/02/28 07:05:59;;;;;;;5.80;4.97;;;;;;;-0.70;68.67;99981.41;5046529;28;41648;-76
2023/02/28 07:08:28;;;;;;;6.97;4.43;;;;;;;-0.58;68.19;99991.81;5070378;28;41695;-78
2023/02/28 07:10:57;;;;;;;6.40;4.40;;;;;;;-0.46;67.76;99983.16;5087560;28;42831;-77
2023/02/28 07:13:25;;;;;;;4.93;3.83;;;;;;;-0.27;67.19;99991.84;5078966;28;42196;-79
2023/02/28 07:15:57;;;;;;;7.17;4.63;;;;;;;-0.05;66.51;99993.53;5067761;28;38815;-81
2023/02/28 07:18:25;;;;;;;5.70;4.50;;;;;;;-0.02;65.68;99967.50;5088445;28;41834;-80
2023/02/28 07:20:53;;;;;;;5.53;4.47;;;;;;;0.25;64.72;99974.34;5087513;28;42821;-80
2023/02/28 07:23:22;;;;;;;9.87;4.90;;;;;;;0.67;64.07;100000.25;5087617;28;43197;-80
2023/02/28 07:25:52;;;;;;;6.23;4.63;;;;;;;1.08;62.48;100000.06;5070387;28;38823;-80
2023/02/28 07:28:19;;;;;;;5.77;4.43;;;;;;;1.38;60.61;100013.75;5088470;28;41421;-80
2023/02/28 07:30:47;;;;;;;6.53;4.13;;;;;;;1.84;60.64;100016.91;5087052;28;43146;-81
2023/02/28 07:33:15;;;;;;;5.40;4.47;;;;;;;1.77;59.38;100008.25;5069406;28;40954;-81
2023/02/28 07:35:43;;;;;;;6.50;4.77;;;;;;;1.92;58.97;100029.88;5069980;28;39090;-81
2023/02/28 07:38:13;;;;;;;5.83;4.93;;;;;;;1.90;59.14;100021.19;5071067;28;40590;-79
2023/02/28 07:40:41;;;;;;;5.90;4.33;;;;;;;1.83;58.73;100017.78;5068056;28;41842;-78
2023/02/28 07:43:10;;;;;;;7.83;5.00;;;;;;;1.84;59.11;100024.75;5087309;28;43665;-79
2023/02/28 07:45:38;;;;;;;7.30;4.67;;;;;;;1.89;58.81;100020.31;5071639;28;38464;-80
2023/02/28 07:48:09;;;;;;;7.67;4.87;;;;;;;2.33;58.58;100025.13;5087074;28;40666;-81
2023/02/28 07:50:37;;;;;;;5.90;4.57;;;;;;;2.90;56.76;100027.94;5071043;28;40924;-78
2023/02/28 07:53:05;;;;;;;6.07;5.30;;;;;;;2.96;55.59;100030.50;5069930;28;40969;-79
2023/02/28 07:55:32;;;;;;;7.93;5.03;;;;;;;2.86;56.22;100037.56;5088679;28;39826;-79
2023/02/28 07:58:00;;;;;;;8.93;5.23;;;;;;;2.78;56.50;100038.56;5085912;28;41881;-78
2023/02/28 08:00:31;;;;;;;7.43;5.60;;;;;;;2.76;56.62;100040.31;5086804;28;42077;-78
2023/02/28 08:02:59;;;;;;;7.27;5.47;;;;;;;2.63;56.63;100023.03;5084045;28;42227;-79
2023/02/28 08:05:26;;;;;;;7.10;6.00;;;;;;;2.63;56.35;100029.13;5087681;28;40784;-80
2023/02/28 08:07:54;;;;;;;5.23;4.53;;;;;;;2.65;56.50;100032.59;5068024;28;40204;-79
2023/02/28 08:10:22;;;;;;;7.33;5.67;;;;;;;3.02;56.26;100030.41;5069696;28;41728;-81
2023/02/28 08:12:49;;;;;;;5.90;5.27;;;;;;;3.05;55.77;100037.34;5068383;28;41483;-80
2023/02/28 08:15:17;;;;;;;10.03;5.90;;;;;;;3.54;55.16;100042.75;5069843;28;39891;-80
2023/02/28 08:17:46;;;;;;;9.30;6.33;;;;;;;4.16;53.79;100048.72;5069730;28;40538;-79
2023/02/28 08:20:14;;;;;;;7.30;5.53;;;;;;;5.47;51.24;100054.81;5087478;28;42899;-82
2023/02/28 08:22:42;;;;;;;6.90;6.20;;;;;;;6.63;47.94;100076.50;5085987;28;43191;-81
2023/02/28 08:25:10;;;;;;;7.03;5.17;;;;;;;7.48;45.74;100095.13;5087706;28;40343;-77
2023/02/28 08:27:38;;;;;;;6.83;5.50;;;;;;;9.78;42.15;100102.94;5069753;28;40625;-79
2023/02/28 08:30:07;;;;;;;6.03;5.43;;;;;;;11.26;38.28;100128.50;5086433;28;42498;-77
2023/02/28 08:32:35;;;;;;;6.97;5.07;;;;;;;12.46;37.18;100121.00;5085169;28;41148;-77
2023/02/28 08:35:05;;;;;;;7.00;5.50;;;;;;;13.47;35.21;100123.75;5085748;28;40020;-79
2023/02/28 08:37:33;;;;;;;6.33;5.70;;;;;;;13.25;34.25;100116.03;5068558;28;41260;-80
2023/02/28 08:40:00;;;;;;;5.97;5.40;;;;;;;12.73;34.43;100118.75;5069303;28;41807;-79
2023/02/28 08:42:28;;;;;;;6.37;5.77;;;;;;;12.34;35.37;100126.06;5087832;28;43309;-77
2023/02/28 08:44:56;;;;;;;7.87;6.37;;;;;;;12.52;35.71;100104.72;5085223;28;39675;-77
2023/02/28 08:47:24;;;;;;;7.70;5.87;;;;;;;14.68;31.87;100132.81;5085216;28;40790;-80
2023/02/28 08:49:51;;;;;;;6.40;5.57;;;;;;;16.37;28.79;100140.03;5084951;28;41884;-80
2023/02/28 08:52:21;;;;;;;6.73;5.80;;;;;;;17.18;28.02;100144.31;5086262;28;43174;-78
2023/02/28 08:54:49;;;;;;;6.97;6.17;;;;;;;16.87;27.82;100113.47;5085059;28;38949;-78
2023/02/28 08:57:17;;;;;;;6.83;6.07;;;;;;;17.19;27.54;100137.16;5086120;28;41493;-79
2023/02/28 08:59:45;;;;;;;6.87;6.20;;;;;;;17.66;26.88;100136.53;5086800;28;20233;-82
2023/02/28 09:02:14;;;;;;;8.03;6.07;;;;;;;17.63;26.17;100151.94;5084733;28;43126;-80
2023/02/28 09:04:45;;;;;;;6.17;5.57;;;;;;;18.09;25.16;100123.56;5086706;28;39762;-84
2023/02/28 09:07:13;;;;;;;6.80;5.53;;;;;;;18.82;24.30;100150.28;5070328;28;40720;-81
2023/02/28 09:09:53;;;;;;;6.53;5.93;;;;;;;19.90;24.50;100144.50;5070013;28;42839;-81
2023/02/28 09:12:21;;;;;;;7.17;6.10;;;;;;;19.97;23.24;100145.69;5084301;28;43146;-79
2023/02/28 09:14:49;;;;;;;7.33;5.70;;;;;;;19.79;24.59;100135.56;5086806;28;39968;-79
2023/02/28 09:17:17;;;;;;;7.43;6.00;;;;;;;18.77;23.69;100135.50;5069576;28;42994;-84
2023/02/28 09:19:45;;;;;;;7.33;5.63;;;;;;;17.89;24.56;100121.47;5086915;28;42913;-82
2023/02/28 09:22:13;;;;;;;8.17;6.47;;;;;;;17.63;24.72;100138.53;5070340;28;40851;-84
2023/02/28 09:24:42;;;;;;;7.23;6.40;;;;;;;17.72;25.31;100061.06;5086758;28;39544;-80
2023/02/28 09:27:10;;;;;;;6.43;5.73;;;;;;;18.55;24.85;100112.06;5087920;28;41843;-81
2023/02/28 09:29:38;;;;;;;6.77;6.07;;;;;;;18.86;23.77;100132.97;5088023;28;43846;-81
2023/02/28 09:32:06;;;;;;;6.17;5.30;;;;;;;17.88;23.96;100125.13;5069820;28;41083;-83
2023/02/28 09:34:36;;;;;;;5.93;5.43;;;;;;;17.71;25.07;100101.34;5086332;28;39894;-78
2023/02/28 09:37:04;;;;;;;6.33;5.53;;;;;;;17.74;24.08;100112.72;5085664;28;40449;-84
2023/02/28 09:39:32;;;;;;;6.00;5.40;;;;;;;17.46;24.70;100118.28;5084869;28;42922;-79
2023/02/28 09:42:03;;;;;;;6.53;5.93;;;;;;;16.12;25.99;100122.94;5086939;28;41916;-81
2023/02/28 09:44:36;;;;;;;6.23;5.70;;;;;;;14.89;26.80;100121.81;5081917;28;39883;-79
2023/02/28 09:47:12;;;;;;;5.67;5.17;;;;;;;14.07;27.94;100110.63;5084919;28;41860;-80
2023/02/28 09:49:43;;;;;;;7.23;6.07;;;;;;;13.32;29.27;100101.47;5082757;28;45286;-80
2023/02/28 09:52:14;;;;;;;6.70;5.73;;;;;;;12.47;30.12;100105.91;5084099;28;42004;-83
2023/02/28 09:54:42;;;;;;;6.90;5.60;;;;;;;12.08;31.00;100088.38;5069086;28;39225;-79
2023/02/28 09:57:33;;;;;;;8.00;6.40;;;;;;;12.02;31.67;100071.84;5085462;28;41702;-82
2023/02/28 10:00:16;;;;;;;6.07;5.47;;;;;;;12.85;31.05;100101.31;5083249;28;43467;-79
2023/02/28 10:02:59;;;;;;;7.17;6.10;;;;;;;14.83;29.40;100098.19;5087464;28;42114;-80
2023/02/28 10:05:32;;;;;;;6.87;5.37;;;;;;;16.99;26.95;100102.88;5072224;28;40174;-81
2023/02/28 10:08:07;;;;;;;5.80;5.30;;;;;;;18.61;25.16;100119.72;5087180;28;42258;-79
2023/02/28 10:10:41;;;;;;;5.50;5.00;;;;;;;19.68;22.72;100161.47;5087275;28;42574;-80
2023/02/28 10:13:17;;;;;;;6.20;5.60;;;;;;;19.87;21.81;100158.19;5087398;28;42873;-80
2023/02/28 10:15:48;;;;;;;6.37;5.77;;;;;;;20.51;22.09;100150.28;5085790;28;38804;-80
2023/02/28 10:18:22;;;;;;;6.00;5.30;;;;;;;21.65;22.26;100143.13;5083676;28;42443;-80
2023/02/28 10:20:51;;;;;;;6.67;5.93;;;;;;;22.40;19.85;100158.88;5084194;28;41949;-80
2023/02/28 10:23:22;;;;;;;6.07;5.57;;;;;;;21.58;20.03;100166.25;5093059;28;43297;-80
2023/02/28 10:25:56;;;;;;;6.50;5.90;;;;;;;20.27;21.00;100155.81;5076074;28;39290;-80
2023/02/28 10:28:27;;;;;;;6.17;5.57;;;;;;;20.62;21.92;100149.38;5076102;28;41977;-80
2023/02/28 10:30:56;;;;;;;6.60;5.37;;;;;;;20.74;21.61;100108.81;5075939;28;43233;-80
2023/02/28 10:33:26;;;;;;;6.03;5.53;;;;;;;20.71;20.68;100129.75;5075897;28;41413;-80
2023/02/28 10:35:54;;;;;;;6.00;5.30;;;;;;;19.93;21.35;100144.22;5093600;28;40883;-79
2023/02/28 10:38:24;;;;;;;6.60;5.87;;;;;;;19.33;22.24;100139.19;5092907;28;40694;-79
2023/02/28 10:40:52;;;;;;;6.27;5.73;;;;;;;19.47;21.84;100122.84;5091845;28;42052;-78
2023/02/28 10:43:24;;;;;;;6.43;5.90;;;;;;;19.52;22.35;100136.81;5075652;28;41485;-79
2023/02/28 10:46:00;;;;;;;6.80;6.10;;;;;;;18.49;22.74;100116.09;5090436;28;40413;-79
2023/02/28 10:48:40;;;;;;;6.53;5.93;;;;;;;18.26;22.86;100112.44;5092703;28;40872;-77
2023/02/28 10:51:09;;;;;;;6.67;5.97;;;;;;;18.82;23.16;100106.47;5090963;28;44519;-77
2023/02/28 10:53:47;;;;;;;6.30;5.70;;;;;;;20.04;22.65;100124.53;5074781;28;40885;-76
2023/02/28 10:56:18;;;;;;;6.13;5.57;;;;;;;19.41;22.40;100120.63;5089940;28;40921;-75
2023/02/28 10:58:53;;;;;;;6.50;5.90;;;;;;;18.62;23.05;100121.44;5091533;28;40766;-76
2023/02/28 11:01:24;;;;;;;6.87;5.97;;;;;;;17.11;24.23;100115.41;5071820;28;41923;-79
2023/02/28 11:03:53;;;;;;;9.60;6.37;;;;;;;15.59;24.94;100106.81;5072124;28;42355;-78
2023/02/28 11:06:23;;;;;;;7.10;6.40;;;;;;;14.34;27.08;100098.41;5080016;28;40008;-80
2023/02/28 11:08:54;;;;;;;6.77;6.17;;;;;;;14.05;27.54;100077.88;5075371;28;40959;-79
2023/02/28 11:11:25;;;;;;;8.87;6.53;;;;;;;13.97;27.72;100084.50;5092012;28;41848;-82
2023/02/28 11:13:55;;;;;;;7.13;5.93;;;;;;;13.79;28.06;100096.19;5092897;28;41044;-81
2023/02/28 11:16:33;;;;;;;7.30;5.97;;;;;;;13.19;28.57;100084.44;5075055;28;39051;-81
2023/02/28 11:19:01;;;;;;;9.47;6.07;;;;;;;12.90;29.45;100083.28;5092845;28;41740;-82
2023/02/28 11:21:33;;;;;;;6.73;6.13;;;;;;;12.57;29.45;100060.19;5075266;28;41937;-82
2023/02/28 11:24:07;;;;;;;7.10;6.30;;;;;;;12.56;29.93;100071.75;5092535;28;42900;-80
2023/02/28 11:26:41;;;;;;;6.53;5.93;;;;;;;12.34;30.26;100068.47;5088605;28;40125;-79
2023/02/28 11:29:19;;;;;;;7.33;6.10;;;;;;;12.24;30.72;100061.88;5092204;28;41800;-80
2023/02/28 11:32:19;;;;;;;7.27;6.57;;;;;;;12.41;30.70;100067.22;5088770;28;42626;-79
2023/02/28 11:35:00;;;;;;;8.70;7.07;;;;;;;12.64;30.07;100071.34;5093027;28;42386;-79
2023/02/28 11:37:30;;;;;;;8.00;7.20;;;;;;;12.85;30.29;100053.44;5090992;28;40879;-82
2023/02/28 11:39:57;;;;;;;8.40;7.53;;;;;;;12.77;30.12;100071.56;5093065;28;42717;-80
2023/02/28 11:42:40;;;;;;;8.47;7.30;;;;;;;12.85;30.16;100069.41;5070810;28;42859;-79
2023/02/28 11:45:29;;;;;;;7.80;6.97;;;;;;;13.39;31.19;100064.72;5068884;28;42131;-81
2023/02/28 11:48:10;;;;;;;7.53;6.27;;;;;;;13.61;29.77;100066.13;5071465;28;40077;-82
2023/02/28 11:50:51;;;;;;;7.03;6.33;;;;;;;13.30;28.73;100055.47;5073180;28;41851;-80